KLTS/LTS METAR and TAF weather

Enter ICAO airport designator
Station Type Date Time Source
KLTS METAR 2024/04/18 06:55 UTC NOAA

KLTS 180655Z 14009KT 8SM CLR 20/18 A2980 RMK AO2A SLP077 T01990184 $


Station Type Date Time Source
KLTS Decoded METAR 2024/04/18 06:55 UTC NOAA

Altus Air Force Base, OK, United States (KLTS) 34-39N 099-16W 420M
Apr 18, 2024 - 02:55 AM EDT / 2024.04.18 0655 UTC
Wind: from the SE (140 degrees) at 10 MPH (9 KT):0
Visibility: 8 mile(s):0
Sky conditions: clear
Temperature: 67.8 F (19.9 C)
Dew Point: 65.1 F (18.4 C)
Relative Humidity: 91%
Pressure (altimeter): 29.8 in. Hg (1009 hPa)
ob: KLTS 180655Z 14009KT 8SM CLR 20/18 A2980 RMK AO2A SLP077 T01990184
cycle: 7

Station Type Date Time Source
KLTS TAF 2024/04/18 17:33 UTC NOAA